Time;durP1;ratioP1;P1;durP2;ratioP2;P2;SDS_P1;SDS_P2;PMS_P1;PMS_P2;Temp;Humidity;BMP_temperature;BMP_pressure;BME280_temperature;BME280_humidity;BME280_pressure;Samples;Min_cycle;Max_cycle;Signal;HPM_P1;HPM_P2
2021/12/05 00:18:09;;;;;;;5.40;1.33;;;8.80;99.90;;;;;;5020953;28;20033;-49
2021/12/05 00:21:00;;;;;;;2.90;1.20;;;8.80;99.80;;;;;;5019757;28;20029;-49
2021/12/05 00:24:14;;;;;;;1.05;0.60;;;8.80;99.80;;;;;;5020845;28;20029;-49
2021/12/05 00:26:18;;;;;;;4.82;0.73;;;8.80;99.80;;;;;;5001830;28;20076;-49
2021/12/05 00:29:04;;;;;;;6.95;0.93;;;8.80;99.80;;;;;;5013483;28;20030;-49
2021/12/05 00:31:57;;;;;;;0.50;0.50;;;8.80;99.80;;;;;;5020757;28;20038;-49
2021/12/05 01:16:26;;;;;;;0.73;0.70;;;8.80;99.90;;;;;;5017186;28;20030;-49
2021/12/05 01:18:52;;;;;;;3.03;1.02;;;8.80;99.90;;;;;;5021586;28;20046;-49
2021/12/05 01:21:22;;;;;;;2.20;0.95;;;8.80;99.90;;;;;;5020011;28;20041;-49
2021/12/05 01:26:26;;;;;;;0.60;0.60;;;8.80;99.90;;;;;;5016262;28;20358;-50
2021/12/05 01:29:20;;;;;;;0.80;0.80;;;8.80;99.90;;;;;;5015026;28;20516;-49
2021/12/05 01:53:54;;;;;;;1.30;1.00;;;8.80;99.90;;;;;;4943806;29;20082;-49
2021/12/05 02:42:29;;;;;;;0.57;0.57;;;8.70;99.80;;;;;;5017294;28;20352;-49
2021/12/05 02:44:55;;;;;;;0.82;0.70;;;8.70;99.80;;;;;;5019285;28;20060;-49
2021/12/05 02:47:24;;;;;;;5.68;0.65;;;8.70;99.80;;;;;;5023713;28;20513;-49
2021/12/05 02:49:53;;;;;;;1.42;0.60;;;8.70;99.80;;;;;;5020468;28;20037;-49
2021/12/05 02:52:27;;;;;;;0.65;0.65;;;8.70;99.70;;;;;;5021137;28;20461;-50
2021/12/05 02:54:57;;;;;;;0.85;0.55;;;8.70;99.70;;;;;;5020445;28;20038;-49
2021/12/05 02:57:45;;;;;;;0.70;0.60;;;8.70;99.60;;;;;;5022835;28;20116;-49
2021/12/05 03:00:15;;;;;;;0.95;0.60;;;8.60;99.70;;;;;;5017785;28;20115;-49
2021/12/05 03:02:44;;;;;;;0.60;0.60;;;8.60;99.60;;;;;;5024736;28;20034;-49
2021/12/05 03:05:14;;;;;;;0.88;0.85;;;8.60;99.70;;;;;;5020748;28;20022;-49
2021/12/05 03:07:46;;;;;;;0.80;0.80;;;8.60;99.60;;;;;;5019649;28;20449;-49
2021/12/05 03:10:15;;;;;;;1.13;1.02;;;8.60;99.60;;;;;;5019992;28;20360;-49
2021/12/05 03:12:43;;;;;;;1.70;1.60;;;8.60;99.60;;;;;;5020940;28;20033;-49
2021/12/05 03:15:12;;;;;;;1.10;0.60;;;8.60;99.60;;;;;;5017595;28;20109;-49
2021/12/05 03:17:38;;;;;;;3.08;0.80;;;8.60;99.70;;;;;;5022733;28;20033;-49
2021/12/05 03:20:06;;;;;;;4.47;0.75;;;8.60;99.70;;;;;;5022500;28;20044;-49
2021/12/05 03:22:32;;;;;;;0.70;0.70;;;8.60;99.70;;;;;;5021654;28;20364;-49
2021/12/05 03:24:58;;;;;;;0.52;0.52;;;8.60;99.70;;;;;;5015525;28;20444;-49
2021/12/05 03:27:23;;;;;;;0.73;0.70;;;8.60;99.60;;;;;;5017520;28;20022;-49
2021/12/05 03:29:49;;;;;;;1.30;0.90;;;8.60;99.50;;;;;;5016316;28;20389;-49
2021/12/05 03:32:15;;;;;;;0.30;0.30;;;8.60;99.60;;;;;;5023539;28;20668;-49
2021/12/05 03:34:41;;;;;;;0.68;0.68;;;8.60;99.50;;;;;;5022111;28;20052;-49
2021/12/05 03:37:08;;;;;;;0.75;0.70;;;8.60;99.60;;;;;;5018331;28;20025;-50
2021/12/05 03:39:35;;;;;;;0.70;0.70;;;8.60;99.60;;;;;;5023489;28;20056;-49
2021/12/05 03:42:01;;;;;;;0.60;0.50;;;8.60;99.50;;;;;;5023259;28;20495;-49
2021/12/05 03:44:29;;;;;;;2.08;0.73;;;8.60;99.70;;;;;;5016038;28;20392;-49
2021/12/05 03:46:56;;;;;;;0.60;0.60;;;8.60;99.60;;;;;;5019672;28;20030;-49
2021/12/05 03:49:23;;;;;;;0.68;0.68;;;8.60;99.60;;;;;;5017772;28;20045;-49
2021/12/05 03:51:54;;;;;;;0.60;0.60;;;8.60;99.60;;;;;;5021046;28;20534;-49
2021/12/05 03:54:20;;;;;;;1.20;0.68;;;8.60;99.50;;;;;;5022760;28;20061;-50
2021/12/05 03:56:47;;;;;;;0.77;0.77;;;8.60;99.60;;;;;;5020495;28;20053;-49
2021/12/05 03:59:13;;;;;;;1.17;0.95;;;8.60;99.60;;;;;;5022079;28;20041;-49
2021/12/05 04:01:40;;;;;;;0.60;0.60;;;8.60;99.60;;;;;;5019843;28;20056;-49
2021/12/05 04:04:06;;;;;;;0.70;0.70;;;8.60;99.50;;;;;;5021322;28;20057;-49
2021/12/05 04:06:32;;;;;;;1.30;0.90;;;8.60;99.50;;;;;;5023026;28;20032;-49
2021/12/05 04:08:59;;;;;;;5.20;0.95;;;8.60;99.50;;;;;;5017236;28;20033;-49
2021/12/05 04:11:35;;;;;;;1.52;1.08;;;8.60;99.60;;;;;;5020300;28;20022;-49
2021/12/05 04:14:02;;;;;;;1.05;0.95;;;8.60;99.50;;;;;;5020010;28;20034;-49
2021/12/05 04:16:28;;;;;;;1.02;0.93;;;8.60;99.40;;;;;;5018892;28;20279;-49
2021/12/05 04:18:55;;;;;;;1.40;0.80;;;8.60;99.50;;;;;;5017766;28;20231;-49
2021/12/05 04:21:20;;;;;;;1.55;1.20;;;8.60;99.60;;;;;;5022123;28;20029;-49
2021/12/05 04:23:47;;;;;;;0.95;0.70;;;8.60;99.40;;;;;;5020239;28;20026;-49
2021/12/05 04:26:13;;;;;;;1.13;0.98;;;8.60;99.40;;;;;;5022403;28;20072;-49
2021/12/05 04:28:39;;;;;;;0.85;0.80;;;8.60;99.60;;;;;;5019882;28;20030;-49
2021/12/05 04:31:08;;;;;;;1.27;1.00;;;8.60;99.40;;;;;;5014946;28;20120;-49
2021/12/05 04:33:35;;;;;;;0.80;0.80;;;8.60;99.60;;;;;;5020602;28;20105;-49
2021/12/05 04:36:00;;;;;;;0.80;0.70;;;8.60;99.50;;;;;;5019823;28;20075;-49
2021/12/05 04:38:27;;;;;;;1.00;0.90;;;8.60;99.60;;;;;;5024397;28;20041;-48
2021/12/05 04:40:53;;;;;;;3.25;1.00;;;8.60;99.60;;;;;;5017909;28;20025;-48
2021/12/05 04:43:19;;;;;;;4.40;0.90;;;8.60;99.60;;;;;;5019118;28;20117;-49
2021/12/05 04:45:45;;;;;;;3.15;1.20;;;8.60;99.50;;;;;;5018186;28;20239;-49
2021/12/05 04:48:11;;;;;;;1.20;0.75;;;8.60;99.50;;;;;;5018379;28;20014;-49
2021/12/05 04:50:38;;;;;;;1.00;0.75;;;8.60;99.50;;;;;;5017225;28;20122;-49
2021/12/05 04:53:05;;;;;;;5.38;1.30;;;8.60;99.50;;;;;;5021214;28;20105;-49
2021/12/05 04:55:31;;;;;;;3.00;0.90;;;8.60;99.50;;;;;;5019302;28;20440;-49
2021/12/05 04:57:58;;;;;;;1.48;1.05;;;8.60;99.50;;;;;;5022165;28;20056;-49
2021/12/05 05:00:25;;;;;;;4.32;1.13;;;8.60;99.40;;;;;;5015696;28;20040;-49
2021/12/05 05:02:52;;;;;;;0.65;0.65;;;8.60;99.50;;;;;;5018199;28;20471;-49
2021/12/05 05:05:18;;;;;;;1.20;1.08;;;8.60;99.60;;;;;;5015301;28;20453;-49
2021/12/05 05:07:44;;;;;;;0.98;0.93;;;8.60;99.50;;;;;;5020888;28;20093;-49
2021/12/05 05:10:32;;;;;;;1.63;0.88;;;8.60;99.40;;;;;;5020221;28;20116;-49
2021/12/05 05:12:59;;;;;;;1.83;1.02;;;8.60;99.40;;;;;;5014653;28;20281;-49
2021/12/05 05:15:28;;;;;;;3.53;1.10;;;8.60;99.50;;;;;;5015488;28;20041;-49
2021/12/05 05:17:55;;;;;;;0.93;0.77;;;8.60;99.40;;;;;;5022246;28;20021;-49
2021/12/05 05:47:11;;;;;;;4.60;1.67;;;8.60;99.40;;;;;;5015763;28;20041;-49
2021/12/05 05:52:10;;;;;;;1.75;1.15;;;8.50;99.60;;;;;;5021377;28;20033;-49
2021/12/05 05:54:35;;;;;;;2.65;1.00;;;8.60;99.50;;;;;;5020221;28;20629;-49
2021/12/05 05:57:19;;;;;;;0.82;0.65;;;8.60;99.40;;;;;;5016956;28;20441;-49
2021/12/05 06:00:06;;;;;;;4.57;1.45;;;8.60;99.40;;;;;;5019010;28;20046;-49
2021/12/05 06:05:16;;;;;;;3.13;1.27;;;8.60;99.40;;;;;;5018611;28;20041;-49
2021/12/05 06:07:44;;;;;;;0.50;0.50;;;8.60;99.50;;;;;;5016410;28;20030;-49
2021/12/05 06:10:12;;;;;;;1.58;0.90;;;8.60;99.30;;;;;;5018709;28;20084;-49
2021/12/05 06:12:39;;;;;;;1.25;0.90;;;8.50;99.30;;;;;;5021321;28;20022;-49
2021/12/05 06:15:07;;;;;;;0.80;0.80;;;8.50;99.30;;;;;;5016312;28;20034;-49
2021/12/05 06:17:33;;;;;;;1.02;0.80;;;8.60;99.40;;;;;;5022480;28;20487;-50
2021/12/05 06:19:59;;;;;;;1.60;0.88;;;8.50;99.20;;;;;;5022180;28;20060;-49
2021/12/05 06:22:24;;;;;;;3.88;0.82;;;8.50;99.00;;;;;;5025279;28;20033;-48
2021/12/05 06:24:51;;;;;;;2.00;0.90;;;8.50;98.90;;;;;;5021899;28;20021;-49
2021/12/05 06:27:16;;;;;;;1.65;0.88;;;8.50;98.80;;;;;;5021849;28;20121;-48
2021/12/05 06:29:50;;;;;;;4.72;0.90;;;8.50;98.70;;;;;;5024375;28;20104;-48
2021/12/05 06:37:47;;;;;;;4.72;1.08;;;8.50;98.60;;;;;;5019577;28;20088;-49
2021/12/05 06:42:54;;;;;;;3.38;0.68;;;8.50;98.70;;;;;;5023351;28;20061;-49
2021/12/05 06:48:04;;;;;;;2.20;1.23;;;8.50;98.70;;;;;;5019692;28;20033;-49
2021/12/05 06:50:30;;;;;;;6.05;1.02;;;8.50;98.70;;;;;;5021997;28;20034;-48
2021/12/05 06:52:55;;;;;;;3.63;0.80;;;8.50;98.80;;;;;;5024156;28;20101;-49
2021/12/05 06:55:21;;;;;;;1.05;0.70;;;8.50;98.70;;;;;;5021342;28;20104;-49
2021/12/05 06:57:47;;;;;;;1.75;0.82;;;8.50;98.80;;;;;;5023941;28;20437;-49
2021/12/05 07:00:25;;;;;;;2.35;1.13;;;8.50;98.80;;;;;;5016798;28;20057;-49
2021/12/05 07:02:51;;;;;;;2.85;1.60;;;8.50;98.80;;;;;;5024354;28;20036;-48
2021/12/05 07:08:02;;;;;;;5.40;1.08;;;8.50;98.80;;;;;;5021080;28;20066;-48
2021/12/05 07:10:30;;;;;;;0.60;0.60;;;8.50;98.90;;;;;;5019345;28;20528;-49
2021/12/05 07:15:56;;;;;;;3.58;0.93;;;8.50;98.90;;;;;;5021726;28;20036;-48
2021/12/05 07:21:51;;;;;;;5.30;0.80;;;8.50;98.90;;;;;;5019563;28;20428;-48
2021/12/05 07:42:41;;;;;;;2.05;1.25;;;8.50;98.90;;;;;;5018880;28;20065;-48
2021/12/05 07:45:08;;;;;;;5.63;1.13;;;8.50;98.90;;;;;;5020389;28;20362;-49
2021/12/05 07:47:36;;;;;;;2.40;1.17;;;8.50;99.00;;;;;;5015556;28;20056;-49
2021/12/05 07:50:07;;;;;;;1.13;0.70;;;8.50;99.00;;;;;;5019187;28;20052;-49
2021/12/05 07:52:35;;;;;;;1.95;1.15;;;8.50;99.00;;;;;;5023370;28;20036;-48
2021/12/05 07:55:13;;;;;;;5.00;0.90;;;8.50;98.90;;;;;;5019746;28;20041;-49
2021/12/05 07:57:56;;;;;;;0.85;0.82;;;8.50;98.90;;;;;;5020424;28;20041;-48
2021/12/05 08:00:36;;;;;;;1.08;0.98;;;8.60;99.00;;;;;;5020802;28;20049;-49
2021/12/05 08:16:48;;;;;;;2.55;0.75;;;8.60;99.10;;;;;;5024686;28;20379;-49
2021/12/05 08:19:14;;;;;;;2.80;1.60;;;8.60;99.00;;;;;;5024548;28;20033;-49
2021/12/05 08:21:40;;;;;;;1.58;1.00;;;8.60;99.10;;;;;;5022697;28;20037;-49
2021/12/05 08:24:06;;;;;;;1.63;0.90;;;8.60;99.10;;;;;;5026794;28;20022;-48
2021/12/05 08:26:33;;;;;;;3.47;1.40;;;8.60;99.10;;;;;;5025994;28;20036;-48
2021/12/05 08:36:55;;;;;;;2.65;1.63;;;8.60;99.10;;;;;;5016995;28;20084;-49
2021/12/05 09:26:02;;;;;;;0.70;0.70;;;8.60;99.20;;;;;;5025780;28;20026;-49
2021/12/05 09:31:14;;;;;;;10.18;1.95;;;8.60;99.20;;;;;;5018924;28;20025;-49
2021/12/05 10:38:34;;;;;;;4.60;1.38;;;8.70;94.50;;;;;;5029575;28;20065;-51
2021/12/05 10:43:41;;;;;;;1.48;1.00;;;8.80;94.10;;;;;;5030081;28;20488;-51
2021/12/05 10:46:10;;;;;;;0.38;0.38;;;8.80;93.50;;;;;;5031469;28;20036;-51
2021/12/05 10:48:42;;;;;;;0.50;0.50;;;8.70;93.60;;;;;;5021922;28;20040;-51
2021/12/05 10:51:11;;;;;;;0.30;0.30;;;8.80;93.70;;;;;;5030458;28;20514;-52
2021/12/05 10:53:40;;;;;;;1.03;0.70;;;8.80;93.40;;;;;;5019518;28;20116;-51
2021/12/05 10:56:13;;;;;;;1.00;0.95;;;8.80;93.10;;;;;;5024762;28;20061;-51
2021/12/05 10:58:51;;;;;;;4.03;1.38;;;8.80;93.30;;;;;;5022461;28;20065;-51
2021/12/05 11:01:34;;;;;;;3.25;0.95;;;8.70;92.70;;;;;;5029518;28;20021;-51
2021/12/05 11:04:06;;;;;;;2.42;1.30;;;8.80;92.80;;;;;;5019689;28;20614;-51
2021/12/05 11:06:35;;;;;;;2.38;0.90;;;8.80;92.60;;;;;;5019191;28;20034;-51
2021/12/05 11:09:09;;;;;;;1.55;0.93;;;8.70;93.00;;;;;;5021430;28;20072;-51
2021/12/05 11:11:37;;;;;;;1.75;0.85;;;8.80;92.70;;;;;;5026109;28;20017;-51
2021/12/05 11:14:07;;;;;;;2.47;1.48;;;8.80;92.80;;;;;;5027057;28;20453;-51
2021/12/05 11:16:45;;;;;;;2.53;1.63;;;8.80;92.20;;;;;;5027768;28;20030;-51
2021/12/05 11:19:19;;;;;;;0.98;0.93;;;8.80;92.00;;;;;;5024475;28;20069;-51
2021/12/05 11:21:48;;;;;;;1.20;1.10;;;8.80;92.10;;;;;;5020270;28;20111;-51
2021/12/05 11:24:16;;;;;;;1.08;1.00;;;8.80;91.50;;;;;;5008336;28;20025;-52
2021/12/05 11:26:45;;;;;;;1.15;1.05;;;8.80;91.90;;;;;;5023795;28;20040;-51
2021/12/05 11:29:11;;;;;;;3.88;1.00;;;8.80;91.80;;;;;;5022912;28;20021;-51
2021/12/05 11:31:39;;;;;;;2.88;1.02;;;8.80;92.20;;;;;;5021910;28;20021;-52
2021/12/05 11:34:05;;;;;;;2.30;1.05;;;8.80;92.00;;;;;;5019237;28;20499;-51
2021/12/05 11:36:35;;;;;;;7.35;1.02;;;8.70;92.40;;;;;;5019276;28;20105;-51
2021/12/05 11:39:20;;;;;;;2.33;0.93;;;8.80;91.60;;;;;;5024854;28;20133;-51
2021/12/05 11:41:46;;;;;;;1.60;1.20;;;8.70;91.50;;;;;;5024820;28;20103;-51
2021/12/05 11:44:21;;;;;;;1.67;0.95;;;8.80;91.70;;;;;;5021018;28;20621;-51
2021/12/05 11:46:47;;;;;;;0.60;0.60;;;8.70;90.70;;;;;;5021028;28;20021;-51
2021/12/05 11:49:22;;;;;;;4.35;1.17;;;8.70;90.90;;;;;;5022865;28;20025;-51
2021/12/05 11:51:52;;;;;;;1.20;1.10;;;8.70;91.20;;;;;;5015266;28;20037;-51
2021/12/05 11:54:40;;;;;;;2.70;1.05;;;8.70;91.70;;;;;;5027805;28;20111;-51
2021/12/05 11:57:15;;;;;;;0.30;0.30;;;8.70;91.60;;;;;;5018574;28;20030;-51
2021/12/05 12:00:09;;;;;;;1.35;1.00;;;8.70;91.30;;;;;;5021337;28;20364;-51
2021/12/05 12:02:40;;;;;;;1.23;1.00;;;8.70;91.30;;;;;;5018458;28;20113;-51
2021/12/05 12:05:23;;;;;;;4.95;1.15;;;8.70;91.30;;;;;;5015927;28;20103;-51
2021/12/05 12:08:16;;;;;;;1.15;1.05;;;8.70;91.60;;;;;;5020668;28;20465;-51
2021/12/05 12:10:46;;;;;;;3.85;1.27;;;8.70;91.30;;;;;;5020228;28;20033;-51
2021/12/05 12:13:20;;;;;;;2.35;1.17;;;8.70;91.50;;;;;;5019554;28;20349;-51
2021/12/05 12:15:57;;;;;;;2.65;1.50;;;8.70;91.10;;;;;;5017316;28;20029;-52
2021/12/05 12:18:27;;;;;;;5.45;1.25;;;8.70;91.10;;;;;;5018484;28;20030;-51
2021/12/05 12:20:55;;;;;;;1.40;1.00;;;8.70;91.00;;;;;;5026458;28;20033;-51
2021/12/05 12:23:22;;;;;;;0.80;0.63;;;8.70;91.50;;;;;;5019664;28;20057;-51
2021/12/05 12:25:51;;;;;;;10.90;1.02;;;8.70;91.20;;;;;;5021201;28;20045;-51
2021/12/05 12:28:17;;;;;;;0.40;0.40;;;8.70;91.00;;;;;;5021123;28;20019;-51
2021/12/05 12:30:48;;;;;;;1.35;0.73;;;8.80;91.00;;;;;;5023508;28;20025;-51
2021/12/05 12:33:17;;;;;;;1.73;1.15;;;8.80;91.00;;;;;;5023295;28;20539;-51
2021/12/05 12:35:48;;;;;;;0.80;0.77;;;8.80;91.20;;;;;;5019647;28;20413;-51
2021/12/05 12:38:23;;;;;;;0.30;0.30;;;8.70;90.90;;;;;;5021630;28;20109;-51
2021/12/05 12:40:59;;;;;;;0.30;0.30;;;8.80;91.10;;;;;;5022870;28;20030;-52
2021/12/05 12:43:45;;;;;;;4.20;1.63;;;8.80;90.70;;;;;;5024414;28;20082;-51
2021/12/05 12:46:22;;;;;;;0.30;0.30;;;8.70;90.70;;;;;;5016719;28;20033;-51
2021/12/05 12:48:51;;;;;;;4.07;0.93;;;8.70;90.60;;;;;;5026538;28;20131;-51
2021/12/05 12:51:46;;;;;;;0.52;0.52;;;8.70;90.60;;;;;;5021880;28;20352;-51
2021/12/05 12:54:24;;;;;;;2.65;1.10;;;8.70;90.60;;;;;;4995159;28;20550;-51
2021/12/05 12:57:24;;;;;;;2.83;0.95;;;8.70;90.20;;;;;;5015670;28;20421;-51
2021/12/05 13:00:15;;;;;;;1.10;1.00;;;8.70;90.20;;;;;;5003073;28;20055;-51
2021/12/05 13:11:01;;;;;;;1.08;0.90;;;8.70;90.00;;;;;;5024805;28;20063;-51
2021/12/05 13:13:29;;;;;;;1.23;1.08;;;8.70;89.10;;;;;;5019974;28;20026;-51
2021/12/05 13:16:11;;;;;;;0.65;0.65;;;8.70;89.30;;;;;;5023933;28;20130;-51
2021/12/05 13:18:40;;;;;;;8.07;2.78;;;8.70;89.70;;;;;;5017338;28;20143;-51
2021/12/05 13:21:10;;;;;;;3.70;1.35;;;8.80;89.20;;;;;;5020683;28;20029;-51
2021/12/05 13:23:48;;;;;;;1.67;1.27;;;8.70;89.70;;;;;;5016587;28;20030;-51
2021/12/05 13:26:49;;;;;;;6.50;4.50;;;8.70;88.70;;;;;;5019413;28;20452;-51
2021/12/05 13:29:17;;;;;;;6.20;2.92;;;8.70;88.80;;;;;;4926196;29;20055;-51
2021/12/05 13:31:49;;;;;;;10.55;4.00;;;8.70;89.30;;;;;;4931995;29;20051;-51
2021/12/05 13:34:26;;;;;;;46.28;2.05;;;8.70;88.80;;;;;;4923905;29;20110;-51
2021/12/05 13:37:20;;;;;;;1.40;0.80;;;8.70;89.30;;;;;;4930761;29;20087;-51
2021/12/05 13:39:55;;;;;;;1.95;1.00;;;8.70;88.00;;;;;;4935631;29;20051;-51
2021/12/05 13:42:24;;;;;;;1.00;0.70;;;8.70;87.40;;;;;;4934000;29;20098;-51
2021/12/05 13:45:05;;;;;;;3.80;0.90;;;8.70;87.90;;;;;;4934784;29;20035;-51
2021/12/05 13:47:39;;;;;;;4.47;2.75;;;8.70;87.70;;;;;;4933855;29;20032;-51
2021/12/05 13:50:26;;;;;;;4.47;2.10;;;8.70;86.10;;;;;;4925882;29;20031;-51
2021/12/05 13:53:03;;;;;;;2.65;1.52;;;8.70;87.30;;;;;;4935932;29;20114;-51
2021/12/05 13:55:39;;;;;;;3.83;1.60;;;8.70;87.00;;;;;;4932526;29;20448;-51
2021/12/05 13:58:13;;;;;;;11.35;2.35;;;8.70;86.30;;;;;;4934120;29;20174;-51
2021/12/05 14:00:44;;;;;;;11.65;5.30;;;8.70;85.80;;;;;;4926044;29;20038;-51
2021/12/05 14:03:10;;;;;;;16.35;6.95;;;8.70;85.80;;;;;;4926382;29;20050;-51
2021/12/05 14:05:36;;;;;;;16.70;5.10;;;8.70;85.50;;;;;;5004213;28;20034;-51
2021/12/05 14:08:02;;;;;;;6.75;2.78;;;8.70;85.10;;;;;;5028273;28;20026;-51
2021/12/05 14:10:43;;;;;;;3.05;1.80;;;8.60;84.10;;;;;;5028103;28;20444;-51
2021/12/05 14:13:09;;;;;;;7.40;2.83;;;8.60;85.00;;;;;;5024485;28;20034;-51
2021/12/05 14:15:35;;;;;;;4.78;1.40;;;8.60;84.20;;;;;;5021960;28;20084;-51
2021/12/05 14:18:01;;;;;;;5.45;1.00;;;8.60;83.70;;;;;;5023255;28;20026;-51
2021/12/05 14:20:27;;;;;;;13.15;4.70;;;8.60;83.60;;;;;;5021915;28;20050;-51
2021/12/05 14:22:54;;;;;;;7.82;3.05;;;8.60;84.20;;;;;;5027299;28;20026;-51
2021/12/05 14:25:23;;;;;;;8.40;3.83;;;8.60;84.40;;;;;;5025787;28;20165;-51
2021/12/05 14:27:56;;;;;;;23.15;8.48;;;8.60;84.20;;;;;;5021003;28;20362;-51
2021/12/05 14:30:24;;;;;;;20.75;5.97;;;8.60;85.10;;;;;;5026580;28;20040;-50
2021/12/05 14:32:58;;;;;;;22.20;8.27;;;8.60;84.80;;;;;;5026126;28;20102;-51
2021/12/05 14:35:29;;;;;;;13.65;5.07;;;8.60;84.70;;;;;;5019549;28;20040;-51
2021/12/05 14:37:55;;;;;;;20.08;6.15;;;8.50;84.50;;;;;;5022542;28;20030;-51
2021/12/05 14:40:30;;;;;;;19.80;4.82;;;8.60;85.10;;;;;;5020911;28;20096;-51
2021/12/05 14:42:59;;;;;;;13.82;4.88;;;8.60;84.30;;;;;;5022986;28;20030;-51
2021/12/05 14:45:28;;;;;;;12.68;5.30;;;8.50;84.90;;;;;;5017183;28;20033;-51
2021/12/05 14:47:58;;;;;;;14.88;4.10;;;8.50;84.90;;;;;;5021247;28;20453;-51
2021/12/05 14:50:27;;;;;;;7.43;3.13;;;8.50;84.90;;;;;;5021556;28;20152;-50
2021/12/05 14:52:55;;;;;;;7.22;3.55;;;8.50;85.00;;;;;;5021226;28;20474;-51
2021/12/05 14:55:24;;;;;;;6.53;2.72;;;8.50;85.60;;;;;;5023022;28;20030;-51
2021/12/05 14:57:53;;;;;;;5.78;2.35;;;8.50;85.80;;;;;;5018539;28;20060;-51
2021/12/05 15:00:24;;;;;;;10.27;3.50;;;8.50;86.10;;;;;;5018097;28;20475;-51
2021/12/05 15:02:58;;;;;;;17.67;6.30;;;8.50;85.80;;;;;;5026711;28;20088;-50
2021/12/05 15:05:24;;;;;;;18.52;7.15;;;8.50;87.50;;;;;;5027866;28;20036;-50
2021/12/05 15:08:04;;;;;;;20.25;8.13;;;8.50;89.30;;;;;;5030010;28;20029;-50
2021/12/05 15:10:31;;;;;;;15.18;5.47;;;8.50;89.60;;;;;;5032114;28;20029;-50
2021/12/05 15:12:56;;;;;;;12.23;4.88;;;8.50;89.50;;;;;;5028590;28;20044;-49
2021/12/05 15:15:24;;;;;;;9.95;3.90;;;8.50;89.60;;;;;;5020026;28;20026;-50
2021/12/05 15:17:50;;;;;;;13.82;3.60;;;8.50;89.90;;;;;;5037764;28;20029;-50
2021/12/05 15:20:19;;;;;;;15.73;6.35;;;8.50;90.00;;;;;;5027271;28;20090;-49
2021/12/05 15:22:50;;;;;;;15.30;5.40;;;8.50;90.10;;;;;;5032313;28;20083;-50
2021/12/05 15:25:20;;;;;;;16.48;5.13;;;8.50;90.20;;;;;;5030833;28;20079;-49
2021/12/05 15:27:47;;;;;;;7.50;2.63;;;8.50;90.30;;;;;;5032785;28;20022;-49
2021/12/05 15:30:18;;;;;;;7.38;2.38;;;8.50;90.50;;;;;;5031255;28;20044;-50
2021/12/05 15:32:49;;;;;;;11.95;4.18;;;8.50;90.60;;;;;;5025172;28;20419;-49
2021/12/05 15:35:16;;;;;;;;;;;8.50;90.80;;;;;;5035718;28;20047;-49
2021/12/05 15:38:12;;;;;;;3.70;1.88;;;8.50;91.00;;;;;;5027835;28;19909;-49
2021/12/05 15:40:41;;;;;;;5.82;1.52;;;8.50;91.10;;;;;;5022128;28;20497;-49
2021/12/05 15:43:27;;;;;;;3.38;1.45;;;8.50;91.20;;;;;;5040539;28;20032;-50
2021/12/05 15:45:55;;;;;;;4.45;2.17;;;8.50;91.40;;;;;;5032901;28;20420;-50
2021/12/05 15:48:30;;;;;;;2.42;1.58;;;8.50;91.50;;;;;;5019793;28;20030;-49
2021/12/05 15:50:57;;;;;;;4.57;2.05;;;8.50;91.70;;;;;;5020067;28;20416;-50
2021/12/05 15:53:25;;;;;;;56.22;9.70;;;8.50;91.90;;;;;;5028430;28;20078;-50
2021/12/05 15:55:58;;;;;;;25.17;7.22;;;8.50;92.00;;;;;;5025453;28;20371;-49
2021/12/05 15:58:38;;;;;;;34.65;8.15;;;8.50;92.10;;;;;;5024111;28;20033;-49
2021/12/05 16:01:12;;;;;;;34.77;9.23;;;8.50;92.20;;;;;;5021909;28;20034;-49
2021/12/05 16:03:47;;;;;;;20.20;6.13;;;8.50;92.70;;;;;;5035962;28;20599;-49
2021/12/05 16:06:15;;;;;;;11.05;4.88;;;8.50;92.50;;;;;;5019371;28;20036;-49
2021/12/05 16:08:43;;;;;;;3.50;1.50;;;8.50;92.60;;;;;;5019645;28;20360;-49
2021/12/05 16:11:14;;;;;;;1.85;1.05;;;8.50;92.70;;;;;;5032462;28;20025;-49
2021/12/05 16:13:42;;;;;;;3.08;1.20;;;8.50;92.80;;;;;;5024168;28;20499;-49
2021/12/05 16:16:12;;;;;;;5.50;1.45;;;8.50;92.90;;;;;;5017583;28;20022;-49
2021/12/05 16:18:42;;;;;;;1.80;1.05;;;8.50;93.00;;;;;;5018649;28;20044;-50
2021/12/05 16:21:26;;;;;;;4.35;1.02;;;8.50;93.00;;;;;;5018611;28;20025;-49
2021/12/05 16:23:52;;;;;;;6.13;1.02;;;8.50;93.10;;;;;;5029061;28;20079;-49
2021/12/05 16:26:28;;;;;;;1.23;0.88;;;8.50;93.20;;;;;;5031508;28;20491;-50
2021/12/05 16:28:58;;;;;;;1.05;0.90;;;8.50;93.30;;;;;;5025823;28;20296;-50
2021/12/05 16:31:31;;;;;;;4.40;1.08;;;8.50;93.40;;;;;;5032776;28;20380;-49
2021/12/05 16:34:01;;;;;;;6.53;1.35;;;8.50;93.50;;;;;;5029646;28;20044;-49
2021/12/05 16:36:53;;;;;;;1.65;0.93;;;8.50;93.60;;;;;;5022385;28;20040;-49
2021/12/05 16:39:43;;;;;;;2.05;0.80;;;8.50;93.70;;;;;;5033774;28;20042;-50
2021/12/05 16:42:13;;;;;;;1.20;0.95;;;8.50;93.80;;;;;;5013343;28;20072;-49
2021/12/05 16:44:41;;;;;;;5.10;1.13;;;8.50;93.80;;;;;;5025701;28;20025;-50
2021/12/05 16:47:13;;;;;;;2.38;1.33;;;8.50;93.90;;;;;;5033972;28;20040;-50
2021/12/05 16:49:41;;;;;;;1.20;0.60;;;8.50;93.90;;;;;;5029190;28;20026;-50
2021/12/05 16:52:20;;;;;;;4.57;0.85;;;8.50;93.90;;;;;;5032496;28;20025;-50
2021/12/05 16:54:45;;;;;;;0.60;0.60;;;8.50;94.00;;;;;;5034193;28;20032;-50
2021/12/05 16:57:14;;;;;;;5.03;1.10;;;8.50;94.00;;;;;;5040398;28;20021;-50
2021/12/05 16:59:41;;;;;;;0.93;0.75;;;8.50;94.10;;;;;;5030422;28;20091;-50
2021/12/05 17:02:14;;;;;;;2.10;1.27;;;8.50;94.10;;;;;;5033486;28;20111;-50
2021/12/05 17:05:04;;;;;;;5.20;1.27;;;8.50;94.20;;;;;;5029325;28;20039;-49
2021/12/05 17:07:44;;;;;;;1.63;1.02;;;8.40;94.20;;;;;;5021070;28;20449;-49
2021/12/05 17:10:19;;;;;;;1.95;0.85;;;8.50;94.40;;;;;;5030150;28;20515;-50
2021/12/05 17:12:47;;;;;;;1.95;1.27;;;8.50;94.40;;;;;;5029617;28;20463;-50
2021/12/05 17:15:16;;;;;;;1.73;0.90;;;8.40;94.30;;;;;;5026123;28;20323;-50
2021/12/05 17:17:44;;;;;;;1.67;1.30;;;8.50;94.50;;;;;;5035124;28;20025;-50
2021/12/05 17:20:25;;;;;;;1.58;0.82;;;8.50;94.60;;;;;;5031919;28;20136;-50
2021/12/05 17:23:08;;;;;;;3.50;1.42;;;8.50;94.60;;;;;;5026446;28;20036;-50
2021/12/05 17:25:43;;;;;;;3.17;1.83;;;8.50;94.70;;;;;;5032319;28;20037;-50
2021/12/05 17:28:16;;;;;;;3.20;2.13;;;8.50;94.70;;;;;;5037805;28;20030;-50
2021/12/05 17:30:56;;;;;;;2.38;1.42;;;8.50;95.10;;;;;;5023184;28;20026;-50
2021/12/05 17:33:28;;;;;;;2.92;1.55;;;8.50;94.80;;;;;;5023958;28;20037;-50
2021/12/05 17:35:54;;;;;;;18.60;4.53;;;8.50;94.90;;;;;;5026390;28;20033;-50
2021/12/05 17:38:34;;;;;;;23.38;6.55;;;8.50;95.20;;;;;;5031065;28;20120;-50
2021/12/05 17:41:00;;;;;;;7.85;2.40;;;8.50;94.90;;;;;;5024842;28;20083;-50
2021/12/05 17:43:26;;;;;;;2.72;1.40;;;8.50;95.00;;;;;;5029732;28;20091;-50
2021/12/05 17:45:52;;;;;;;5.45;2.00;;;8.50;95.00;;;;;;5035909;28;20032;-50
2021/12/05 17:48:18;;;;;;;3.78;1.77;;;8.50;95.00;;;;;;5017670;28;20053;-50
2021/12/05 17:50:44;;;;;;;3.33;1.60;;;8.50;95.10;;;;;;5023394;28;20053;-50
2021/12/05 17:53:10;;;;;;;3.25;1.70;;;8.50;95.10;;;;;;5021852;28;20124;-50
2021/12/05 17:55:43;;;;;;;6.75;2.30;;;8.50;95.10;;;;;;5024428;28;20345;-50
2021/12/05 17:58:22;;;;;;;4.88;2.28;;;8.50;95.10;;;;;;5015009;28;20037;-50
2021/12/05 18:02:36;;;;;;;2.47;1.90;;;8.50;95.20;;;;;;5017534;28;20049;-50
2021/12/05 18:03:43;;;;;;;4.15;1.83;;;8.50;95.20;;;;;;5013893;28;20037;-49
2021/12/05 18:06:09;;;;;;;10.07;3.13;;;8.50;95.20;;;;;;5019699;28;20175;-49
2021/12/05 18:08:34;;;;;;;6.05;3.17;;;8.50;95.30;;;;;;5019376;28;20117;-50
2021/12/05 18:11:03;;;;;;;8.02;3.10;;;8.50;95.30;;;;;;5023951;28;20460;-49
2021/12/05 18:13:33;;;;;;;3.42;1.90;;;8.50;95.30;;;;;;5017143;28;20048;-50
2021/12/05 18:16:05;;;;;;;3.15;1.95;;;8.50;95.30;;;;;;5016759;28;20065;-49
2021/12/05 18:18:33;;;;;;;7.28;1.80;;;8.50;95.40;;;;;;5019475;28;20387;-50
2021/12/05 18:21:04;;;;;;;4.75;2.00;;;8.50;95.40;;;;;;5018315;28;20037;-49
2021/12/05 18:23:29;;;;;;;8.02;1.92;;;8.50;95.40;;;;;;5017591;28;20065;-50
2021/12/05 18:25:56;;;;;;;3.35;1.98;;;8.50;95.40;;;;;;5016818;28;20053;-49
2021/12/05 18:28:22;;;;;;;5.85;2.40;;;8.50;95.50;;;;;;5020643;28;20030;-49
2021/12/05 18:30:48;;;;;;;7.07;1.75;;;8.50;95.50;;;;;;5019793;28;20441;-49
2021/12/05 18:33:18;;;;;;;5.00;2.38;;;8.50;95.50;;;;;;5018633;28;20449;-49
2021/12/05 18:35:44;;;;;;;;;;;8.50;95.60;;;;;;5016235;28;20033;-50
2021/12/05 18:38:13;;;;;;;3.10;2.00;;;8.50;95.50;;;;;;5017851;28;20331;-49
2021/12/05 18:40:42;;;;;;;8.00;2.63;;;8.50;95.60;;;;;;5021443;28;20038;-49
2021/12/05 18:43:08;;;;;;;5.43;2.20;;;8.50;95.60;;;;;;5020101;28;20053;-49
2021/12/05 18:45:38;;;;;;;4.70;2.53;;;8.50;95.60;;;;;;5017527;28;20275;-49
2021/12/05 18:48:04;;;;;;;2.38;1.88;;;8.50;95.70;;;;;;5021604;28;20038;-49
2021/12/05 18:50:32;;;;;;;6.22;2.60;;;8.50;95.70;;;;;;5020072;28;20029;-49
2021/12/05 18:52:57;;;;;;;9.15;3.38;;;8.50;95.70;;;;;;5014815;28;20030;-50
2021/12/05 18:55:23;;;;;;;4.28;2.10;;;8.50;95.70;;;;;;5016128;28;20111;-49
2021/12/05 18:57:52;;;;;;;12.77;2.88;;;8.50;95.70;;;;;;5021339;28;20421;-49
2021/12/05 19:00:28;;;;;;;4.30;1.92;;;8.50;95.70;;;;;;5019402;28;20050;-49
2021/12/05 19:05:51;;;;;;;4.30;1.88;;;8.50;95.80;;;;;;5022159;28;20067;-50